»·PEaware :: SWA617 KOAK-KSAN

SWA617 :: KOAK-KSAN

FLIGHT INFORMATION

Flight Status: Arrived
Operator:
Southwest Airlines
More flights by this operator :: More flights under this callsign
Pilot: Lauren G. (5641)
Aircraft: BOEING 737-200
(B732)
More flights by this aircraft type
Origin: KOAK Metro Oakland Intl
United States
Destination: KSAN San Diego Intl-Lindbergh
United States
More flights between these airports :: More routes between these airports
Route: +COAST8 SXC HUBRD1
File this flight plan on PilotEdge
Remarks: Slant A
Altitude:
(Current/Filed)
33,000ft
Speed:
(Current/Filed)
427kts
Departed: 24-Jan-18 11:16 AM
Arrived: 24-Jan-18 12:43 PM
Distance/Time
Traveled:
387nm/1:27
Distance/Time
To Go:
Arrived

Flight Plot

Page will automatically refresh every two minutes.

Flight plan parsing failed; only flown route is shown


Map Options




Map Legend


Flown Route
Filed Route
Departure Airport
Arrival Airport
Navaid (VOR, NDB)
Fix

Horizontal Profiles

Position Reports

Time Latitude Longitude Heading Altitude Ground
Speed
24-Jan-18 11:00 37.709980 -122.212519 125 12ft 0kts
24-Jan-18 11:01 37.709980 -122.212519 125 12ft 0kts
24-Jan-18 11:02 37.709980 -122.212519 125 12ft 0kts
24-Jan-18 11:03 37.709980 -122.212519 125 12ft 0kts
24-Jan-18 11:04 37.709980 -122.212519 125 12ft 0kts
24-Jan-18 11:05 37.709980 -122.212519 125 12ft 0kts
24-Jan-18 11:06 37.709980 -122.212519 125 12ft 0kts
24-Jan-18 11:07 37.709980 -122.212519 125 12ft 0kts
24-Jan-18 11:08 37.709980 -122.212519 125 12ft 0kts
24-Jan-18 11:09 37.709980 -122.212519 125 12ft 0kts
24-Jan-18 11:10 37.709980 -122.212519 125 12ft 0kts
24-Jan-18 11:11 37.709980 -122.212519 125 12ft 0kts
24-Jan-18 11:12 37.709980 -122.212520 125 12ft 0kts
24-Jan-18 11:13 37.710107 -122.212746 125 12ft 2kts
24-Jan-18 11:14 37.710430 -122.213159 211 12ft 0kts
24-Jan-18 11:15 37.710501 -122.213086 215 12ft 0kts
24-Jan-18 11:16 37.710485 -122.213100 215 12ft 1kts
24-Jan-18 11:17 37.709014 -122.214793 217 12ft 5kts
24-Jan-18 11:18 37.707551 -122.217196 219 12ft 13kts
24-Jan-18 11:19 37.704611 -122.215070 130 12ft 16kts
24-Jan-18 11:20 37.703346 -122.214957 218 12ft 0kts
24-Jan-18 11:21 37.702871 -122.216298 304 12ft 2kts
24-Jan-18 11:22 37.722867 -122.247527 309 1056ft 168kts
24-Jan-18 11:23 37.761717 -122.309325 309 1987ft 247kts
24-Jan-18 11:24 37.803858 -122.376507 309 1992ft 244kts
24-Jan-18 11:25 37.843804 -122.440710 309 1998ft 242kts
24-Jan-18 11:26 37.883866 -122.504649 300 5346ft 239kts
24-Jan-18 11:27 37.858560 -122.575657 221 8267ft 252kts
24-Jan-18 11:28 37.798268 -122.620351 213 10579ft 268kts
24-Jan-18 11:29 37.729165 -122.674296 212 12020ft 305kts
24-Jan-18 11:30 37.655893 -122.734235 206 13875ft 318kts
24-Jan-18 11:31 37.566193 -122.728205 174 15595ft 338kts
24-Jan-18 11:32 37.473195 -122.704886 173 16983ft 346kts
24-Jan-18 11:33 37.379605 -122.680341 174 18914ft 338kts
24-Jan-18 11:34 37.288890 -122.656406 175 20913ft 331kts
24-Jan-18 11:35 37.197586 -122.632401 175 22238ft 340kts
24-Jan-18 11:36 37.104224 -122.607842 175 23473ft 347kts
24-Jan-18 11:37 37.008907 -122.582861 175 24611ft 358kts
24-Jan-18 11:38 36.909729 -122.556862 174 25601ft 370kts
24-Jan-18 11:39 36.810462 -122.531161 174 26652ft 377kts
24-Jan-18 11:40 36.709383 -122.504896 175 28071ft 373kts
24-Jan-18 11:41 36.609250 -122.478924 175 29336ft 371kts
24-Jan-18 11:42 36.508519 -122.452850 175 30237ft 372kts
24-Jan-18 11:43 36.410118 -122.420881 153 31373ft 389kts
24-Jan-18 11:44 36.344060 -122.311899 130 32088ft 418kts
24-Jan-18 11:45 36.282020 -122.192241 131 33117ft 413kts
24-Jan-18 11:46 36.213642 -122.076969 138 33274ft 417kts
24-Jan-18 11:47 36.136567 -121.967698 138 33263ft 428kts
24-Jan-18 11:48 36.045445 -121.879033 144 33271ft 431kts
24-Jan-18 11:49 35.961662 -121.770034 138 33272ft 447kts
24-Jan-18 11:50 35.881278 -121.656127 138 33273ft 456kts
24-Jan-18 11:51 35.797663 -121.537171 137 33258ft 464kts
24-Jan-18 11:52 35.713637 -121.416504 137 33248ft 467kts
24-Jan-18 11:53 35.630853 -121.297473 137 33231ft 466kts
24-Jan-18 11:54 35.547056 -121.177506 137 33238ft 462kts
24-Jan-18 11:55 35.457895 -121.069138 153 33246ft 443kts
24-Jan-18 11:56 35.356079 -120.986838 153 33235ft 438kts
24-Jan-18 11:57 35.255090 -120.907281 153 33237ft 436kts
24-Jan-18 11:58 35.155346 -120.829337 153 33237ft 437kts
24-Jan-18 11:59 35.052696 -120.749473 153 33238ft 439kts
24-Jan-18 12:00 34.962436 -120.679395 152 33240ft 441kts
24-Jan-18 12:01 34.861960 -120.601464 151 33242ft 443kts
24-Jan-18 12:02 34.758036 -120.520980 151 33249ft 445kts
24-Jan-18 12:03 34.653569 -120.440199 151 33237ft 448kts
24-Jan-18 12:04 34.548823 -120.359322 151 33041ft 445kts
24-Jan-18 12:05 34.467657 -120.296622 151 31696ft 439kts
24-Jan-18 12:06 34.366997 -120.218691 151 29890ft 424kts
24-Jan-18 12:07 34.273672 -120.137263 128 27948ft 419kts
24-Jan-18 12:08 34.212563 -120.019838 124 26086ft 407kts
24-Jan-18 12:09 34.154145 -119.905747 126 24320ft 394kts
24-Jan-18 12:10 34.096138 -119.795705 126 24177ft 392kts
24-Jan-18 12:11 34.032024 -119.689139 128 24168ft 399kts
24-Jan-18 12:12 33.971166 -119.576939 125 24154ft 410kts
24-Jan-18 12:13 33.909993 -119.457516 124 24145ft 428kts
24-Jan-18 12:14 33.849123 -119.341164 125 24155ft 441kts
24-Jan-18 12:15 33.785897 -119.216704 124 24150ft 451kts
24-Jan-18 12:16 33.719957 -119.087514 124 24146ft 455kts
24-Jan-18 12:17 33.653735 -118.958317 124 24145ft 455kts
24-Jan-18 12:18 33.587630 -118.829883 124 24131ft 455kts
24-Jan-18 12:19 33.526841 -118.712155 124 24131ft 455kts
24-Jan-18 12:20 33.468040 -118.598557 124 24130ft 452kts
24-Jan-18 12:21 33.402422 -118.472181 124 24129ft 448kts
24-Jan-18 12:22 33.376339 -118.332026 106 24135ft 449kts
24-Jan-18 12:23 33.347016 -118.188457 103 24124ft 448kts
24-Jan-18 12:24 33.325025 -118.042222 101 24100ft 436kts
24-Jan-18 12:25 33.306718 -117.909259 101 23337ft 389kts
24-Jan-18 12:26 33.289519 -117.783892 101 21450ft 378kts
24-Jan-18 12:27 33.272740 -117.662145 101 19645ft 367kts
24-Jan-18 12:28 33.239609 -117.553305 133 17360ft 344kts
24-Jan-18 12:29 33.178235 -117.470823 135 15040ft 329kts
24-Jan-18 12:30 33.112512 -117.397119 158 14978ft 343kts
24-Jan-18 12:31 33.023028 -117.356123 158 14958ft 343kts
24-Jan-18 12:32 32.941264 -117.312879 156 14959ft 329kts
24-Jan-18 12:33 32.863658 -117.270407 156 14969ft 316kts
24-Jan-18 12:34 32.788571 -117.228975 156 14974ft 291kts
24-Jan-18 12:35 32.724246 -117.179573 122 14987ft 274kts
24-Jan-18 12:36 32.740283 -117.090392 62 13516ft 303kts
24-Jan-18 12:37 32.780125 -117.008135 62 12226ft 287kts
24-Jan-18 12:38 32.808984 -116.927017 98 9966ft 271kts
24-Jan-18 12:39 32.798441 -116.842836 100 8133ft 249kts
24-Jan-18 12:40 32.764112 -116.794000 194 6797ft 208kts
24-Jan-18 12:41 32.717594 -116.830186 221 5583ft 191kts
24-Jan-18 12:42 32.678191 -116.870649 235 3895ft 192kts
24-Jan-18 12:43 32.669979 -116.926185 282 3798ft 171kts
24-Jan-18 12:44 32.682830 -116.980999 283 3469ft 166kts
24-Jan-18 12:45 32.695147 -117.033590 283 3105ft 163kts
24-Jan-18 12:46 32.706236 -117.080882 286 2347ft 140kts
24-Jan-18 12:47 32.717388 -117.123909 285 1276ft 138kts
24-Jan-18 12:48 32.727566 -117.165545 286 378ft 129kts
24-Jan-18 12:49 32.734995 -117.195636 286 22ft 33kts
24-Jan-18 12:50 32.734848 -117.199198 270 21ft 3kts
24-Jan-18 12:51 32.734381 -117.202551 203 19ft 15kts
24-Jan-18 12:52 32.732219 -117.202356 185 19ft 0kts
24-Jan-18 12:53 32.732219 -117.202356 185 19ft 0kts
24-Jan-18 12:54 32.732219 -117.202356 185 19ft 0kts

Navigation Log

Ident Type
Flight plan parsing failed, navigation log unavailable